sensor_id;sensor_type;location;lat;lon;timestamp;P1;durP1;ratioP1;P2;durP2;ratioP2
51467;SDS011;37545;45.302;-122.946;2023-05-27T00:01:22;6.38;;;2.83;;
51467;SDS011;37545;45.302;-122.946;2023-05-27T00:03:53;4.57;;;2.88;;
51467;SDS011;37545;45.302;-122.946;2023-05-27T00:06:21;6.68;;;2.80;;
51467;SDS011;37545;45.302;-122.946;2023-05-27T00:08:50;4.25;;;2.70;;
51467;SDS011;37545;45.302;-122.946;2023-05-27T00:11:19;4.50;;;2.97;;
51467;SDS011;37545;45.302;-122.946;2023-05-27T00:13:48;4.88;;;3.30;;
51467;SDS011;37545;45.302;-122.946;2023-05-27T00:16:16;6.40;;;3.05;;
51467;SDS011;37545;45.302;-122.946;2023-05-27T00:18:45;6.80;;;2.80;;
51467;SDS011;37545;45.302;-122.946;2023-05-27T00:21:16;4.43;;;3.13;;
51467;SDS011;37545;45.302;-122.946;2023-05-27T00:23:45;5.55;;;3.20;;
51467;SDS011;37545;45.302;-122.946;2023-05-27T00:26:14;3.65;;;2.85;;
51467;SDS011;37545;45.302;-122.946;2023-05-27T00:28:43;3.75;;;2.72;;
51467;SDS011;37545;45.302;-122.946;2023-05-27T00:31:11;3.13;;;2.53;;
51467;SDS011;37545;45.302;-122.946;2023-05-27T00:33:40;4.07;;;2.63;;
51467;SDS011;37545;45.302;-122.946;2023-05-27T00:36:10;3.42;;;2.70;;
51467;SDS011;37545;45.302;-122.946;2023-05-27T00:38:40;6.45;;;2.95;;
51467;SDS011;37545;45.302;-122.946;2023-05-27T00:41:09;4.97;;;2.88;;
51467;SDS011;37545;45.302;-122.946;2023-05-27T00:43:39;5.63;;;3.25;;
51467;SDS011;37545;45.302;-122.946;2023-05-27T00:46:07;4.38;;;2.58;;
51467;SDS011;37545;45.302;-122.946;2023-05-27T00:48:36;4.50;;;2.50;;
51467;SDS011;37545;45.302;-122.946;2023-05-27T00:51:05;4.70;;;2.72;;
51467;SDS011;37545;45.302;-122.946;2023-05-27T00:53:35;6.03;;;2.45;;
51467;SDS011;37545;45.302;-122.946;2023-05-27T00:56:09;3.65;;;2.53;;
51467;SDS011;37545;45.302;-122.946;2023-05-27T00:58:38;3.65;;;2.60;;
51467;SDS011;37545;45.302;-122.946;2023-05-27T01:01:07;5.43;;;2.53;;
51467;SDS011;37545;45.302;-122.946;2023-05-27T01:03:36;3.60;;;2.30;;
51467;SDS011;37545;45.302;-122.946;2023-05-27T01:06:10;6.03;;;2.60;;
51467;SDS011;37545;45.302;-122.946;2023-05-27T01:08:45;5.97;;;2.65;;
51467;SDS011;37545;45.302;-122.946;2023-05-27T01:11:27;3.90;;;2.60;;
51467;SDS011;37545;45.302;-122.946;2023-05-27T01:14:07;4.72;;;2.58;;
51467;SDS011;37545;45.302;-122.946;2023-05-27T01:16:38;5.10;;;2.63;;
51467;SDS011;37545;45.302;-122.946;2023-05-27T01:19:12;3.47;;;2.53;;
51467;SDS011;37545;45.302;-122.946;2023-05-27T01:21:42;3.78;;;2.50;;
51467;SDS011;37545;45.302;-122.946;2023-05-27T01:24:19;4.22;;;2.60;;
51467;SDS011;37545;45.302;-122.946;2023-05-27T01:26:47;4.53;;;2.28;;
51467;SDS011;37545;45.302;-122.946;2023-05-27T01:29:16;5.18;;;2.30;;
51467;SDS011;37545;45.302;-122.946;2023-05-27T01:31:47;3.75;;;2.60;;
51467;SDS011;37545;45.302;-122.946;2023-05-27T01:34:23;5.55;;;2.67;;
51467;SDS011;37545;45.302;-122.946;2023-05-27T01:36:56;4.50;;;2.88;;
51467;SDS011;37545;45.302;-122.946;2023-05-27T01:39:31;3.38;;;2.55;;
51467;SDS011;37545;45.302;-122.946;2023-05-27T01:42:01;6.23;;;2.77;;
51467;SDS011;37545;45.302;-122.946;2023-05-27T01:44:31;5.53;;;2.70;;
51467;SDS011;37545;45.302;-122.946;2023-05-27T01:47:00;4.05;;;2.65;;
51467;SDS011;37545;45.302;-122.946;2023-05-27T01:49:29;6.55;;;4.63;;
51467;SDS011;37545;45.302;-122.946;2023-05-27T01:51:58;14.88;;;11.50;;
51467;SDS011;37545;45.302;-122.946;2023-05-27T01:54:27;15.27;;;9.80;;
51467;SDS011;37545;45.302;-122.946;2023-05-27T01:56:57;6.65;;;4.40;;
51467;SDS011;37545;45.302;-122.946;2023-05-27T01:59:25;5.65;;;2.60;;
51467;SDS011;37545;45.302;-122.946;2023-05-27T02:01:54;4.55;;;2.50;;
51467;SDS011;37545;45.302;-122.946;2023-05-27T02:04:22;7.07;;;2.70;;
51467;SDS011;37545;45.302;-122.946;2023-05-27T02:06:51;4.93;;;2.60;;
51467;SDS011;37545;45.302;-122.946;2023-05-27T02:09:19;5.30;;;2.75;;
51467;SDS011;37545;45.302;-122.946;2023-05-27T02:11:48;4.05;;;2.65;;
51467;SDS011;37545;45.302;-122.946;2023-05-27T02:14:18;3.40;;;2.53;;
51467;SDS011;37545;45.302;-122.946;2023-05-27T02:16:47;4.82;;;2.60;;
51467;SDS011;37545;45.302;-122.946;2023-05-27T02:19:16;3.10;;;2.45;;
51467;SDS011;37545;45.302;-122.946;2023-05-27T02:21:46;5.15;;;2.78;;
51467;SDS011;37545;45.302;-122.946;2023-05-27T02:24:14;4.00;;;2.50;;
51467;SDS011;37545;45.302;-122.946;2023-05-27T02:26:42;5.10;;;2.42;;
51467;SDS011;37545;45.302;-122.946;2023-05-27T02:29:11;5.55;;;2.70;;
51467;SDS011;37545;45.302;-122.946;2023-05-27T02:31:41;4.45;;;2.63;;
51467;SDS011;37545;45.302;-122.946;2023-05-27T02:34:10;5.40;;;2.70;;
51467;SDS011;37545;45.302;-122.946;2023-05-27T02:36:39;3.90;;;2.67;;
51467;SDS011;37545;45.302;-122.946;2023-05-27T02:39:08;7.03;;;2.90;;
51467;SDS011;37545;45.302;-122.946;2023-05-27T02:41:37;3.22;;;2.42;;
51467;SDS011;37545;45.302;-122.946;2023-05-27T02:44:06;4.15;;;2.40;;
51467;SDS011;37545;45.302;-122.946;2023-05-27T02:46:43;6.18;;;2.70;;
51467;SDS011;37545;45.302;-122.946;2023-05-27T02:49:12;4.45;;;2.67;;
51467;SDS011;37545;45.302;-122.946;2023-05-27T02:51:40;4.18;;;2.60;;
51467;SDS011;37545;45.302;-122.946;2023-05-27T02:54:11;4.57;;;2.30;;
51467;SDS011;37545;45.302;-122.946;2023-05-27T02:56:40;3.33;;;2.25;;
51467;SDS011;37545;45.302;-122.946;2023-05-27T02:59:08;5.22;;;2.58;;
51467;SDS011;37545;45.302;-122.946;2023-05-27T03:01:37;3.92;;;2.42;;
51467;SDS011;37545;45.302;-122.946;2023-05-27T03:04:08;3.67;;;2.85;;
51467;SDS011;37545;45.302;-122.946;2023-05-27T03:06:36;3.88;;;2.80;;
51467;SDS011;37545;45.302;-122.946;2023-05-27T03:09:06;4.60;;;2.40;;
51467;SDS011;37545;45.302;-122.946;2023-05-27T03:11:35;5.68;;;2.60;;
51467;SDS011;37545;45.302;-122.946;2023-05-27T03:14:03;5.40;;;2.63;;
51467;SDS011;37545;45.302;-122.946;2023-05-27T03:16:32;3.63;;;2.53;;
51467;SDS011;37545;45.302;-122.946;2023-05-27T03:19:01;4.60;;;2.58;;
51467;SDS011;37545;45.302;-122.946;2023-05-27T03:21:31;3.95;;;2.40;;
51467;SDS011;37545;45.302;-122.946;2023-05-27T03:24:01;3.10;;;2.35;;
51467;SDS011;37545;45.302;-122.946;2023-05-27T03:26:29;3.97;;;2.38;;
51467;SDS011;37545;45.302;-122.946;2023-05-27T03:28:58;4.18;;;2.70;;
51467;SDS011;37545;45.302;-122.946;2023-05-27T03:31:26;3.25;;;2.42;;
51467;SDS011;37545;45.302;-122.946;2023-05-27T03:33:55;4.28;;;2.63;;
51467;SDS011;37545;45.302;-122.946;2023-05-27T03:36:23;5.80;;;2.50;;
51467;SDS011;37545;45.302;-122.946;2023-05-27T03:38:54;7.43;;;2.65;;
51467;SDS011;37545;45.302;-122.946;2023-05-27T03:41:23;4.38;;;2.45;;
51467;SDS011;37545;45.302;-122.946;2023-05-27T03:43:52;5.85;;;2.65;;
51467;SDS011;37545;45.302;-122.946;2023-05-27T03:46:21;4.28;;;2.60;;
51467;SDS011;37545;45.302;-122.946;2023-05-27T03:48:50;4.47;;;2.53;;
51467;SDS011;37545;45.302;-122.946;2023-05-27T03:51:19;3.53;;;2.65;;
51467;SDS011;37545;45.302;-122.946;2023-05-27T03:53:48;7.55;;;2.92;;
51467;SDS011;37545;45.302;-122.946;2023-05-27T03:56:19;4.82;;;2.67;;
51467;SDS011;37545;45.302;-122.946;2023-05-27T03:58:49;5.97;;;2.88;;
51467;SDS011;37545;45.302;-122.946;2023-05-27T04:01:18;3.95;;;2.63;;
51467;SDS011;37545;45.302;-122.946;2023-05-27T04:03:47;3.95;;;2.47;;
51467;SDS011;37545;45.302;-122.946;2023-05-27T04:06:16;5.60;;;2.55;;
51467;SDS011;37545;45.302;-122.946;2023-05-27T04:08:44;5.25;;;2.65;;
51467;SDS011;37545;45.302;-122.946;2023-05-27T04:11:13;4.20;;;2.60;;
51467;SDS011;37545;45.302;-122.946;2023-05-27T04:13:43;8.52;;;2.70;;
51467;SDS011;37545;45.302;-122.946;2023-05-27T04:16:12;6.13;;;2.53;;
51467;SDS011;37545;45.302;-122.946;2023-05-27T04:18:41;4.00;;;2.90;;
51467;SDS011;37545;45.302;-122.946;2023-05-27T04:21:14;4.40;;;2.50;;
51467;SDS011;37545;45.302;-122.946;2023-05-27T04:23:43;5.13;;;2.60;;
51467;SDS011;37545;45.302;-122.946;2023-05-27T04:26:11;4.60;;;2.80;;
51467;SDS011;37545;45.302;-122.946;2023-05-27T04:28:40;4.55;;;2.42;;
51467;SDS011;37545;45.302;-122.946;2023-05-27T04:31:11;5.30;;;2.63;;
51467;SDS011;37545;45.302;-122.946;2023-05-27T04:33:41;6.65;;;2.70;;
51467;SDS011;37545;45.302;-122.946;2023-05-27T04:36:10;3.33;;;2.50;;
51467;SDS011;37545;45.302;-122.946;2023-05-27T04:38:42;4.43;;;2.60;;
51467;SDS011;37545;45.302;-122.946;2023-05-27T04:41:12;3.70;;;2.78;;
51467;SDS011;37545;45.302;-122.946;2023-05-27T04:43:40;3.58;;;2.60;;
51467;SDS011;37545;45.302;-122.946;2023-05-27T04:46:12;5.57;;;2.60;;
51467;SDS011;37545;45.302;-122.946;2023-05-27T04:48:40;3.75;;;2.45;;
51467;SDS011;37545;45.302;-122.946;2023-05-27T04:51:10;4.03;;;2.10;;
51467;SDS011;37545;45.302;-122.946;2023-05-27T04:53:41;4.20;;;2.33;;
51467;SDS011;37545;45.302;-122.946;2023-05-27T04:56:10;4.28;;;2.50;;
51467;SDS011;37545;45.302;-122.946;2023-05-27T04:58:40;4.35;;;2.60;;
51467;SDS011;37545;45.302;-122.946;2023-05-27T05:01:14;4.75;;;2.20;;
51467;SDS011;37545;45.302;-122.946;2023-05-27T05:03:47;5.85;;;2.47;;
51467;SDS011;37545;45.302;-122.946;2023-05-27T05:06:37;7.68;;;2.35;;
51467;SDS011;37545;45.302;-122.946;2023-05-27T05:09:06;3.92;;;2.50;;
51467;SDS011;37545;45.302;-122.946;2023-05-27T05:11:35;4.60;;;2.25;;
51467;SDS011;37545;45.302;-122.946;2023-05-27T05:14:05;5.03;;;2.45;;
51467;SDS011;37545;45.302;-122.946;2023-05-27T05:16:33;4.47;;;2.72;;
51467;SDS011;37545;45.302;-122.946;2023-05-27T05:19:02;3.88;;;2.17;;
51467;SDS011;37545;45.302;-122.946;2023-05-27T05:21:30;3.42;;;2.00;;
51467;SDS011;37545;45.302;-122.946;2023-05-27T05:23:59;7.00;;;2.03;;
51467;SDS011;37545;45.302;-122.946;2023-05-27T05:26:29;3.90;;;2.00;;
51467;SDS011;37545;45.302;-122.946;2023-05-27T05:28:57;4.15;;;1.90;;
51467;SDS011;37545;45.302;-122.946;2023-05-27T05:31:28;3.78;;;2.00;;
51467;SDS011;37545;45.302;-122.946;2023-05-27T05:33:56;2.20;;;1.50;;
51467;SDS011;37545;45.302;-122.946;2023-05-27T05:36:32;3.30;;;1.80;;
51467;SDS011;37545;45.302;-122.946;2023-05-27T05:39:01;3.13;;;1.65;;
51467;SDS011;37545;45.302;-122.946;2023-05-27T05:41:31;1.70;;;1.33;;
51467;SDS011;37545;45.302;-122.946;2023-05-27T05:43:59;3.35;;;1.60;;
51467;SDS011;37545;45.302;-122.946;2023-05-27T05:46:29;4.45;;;1.48;;
51467;SDS011;37545;45.302;-122.946;2023-05-27T05:48:58;3.75;;;1.65;;
51467;SDS011;37545;45.302;-122.946;2023-05-27T05:51:27;2.65;;;1.60;;
51467;SDS011;37545;45.302;-122.946;2023-05-27T05:53:57;2.72;;;1.40;;
51467;SDS011;37545;45.302;-122.946;2023-05-27T05:56:26;2.33;;;1.50;;
51467;SDS011;37545;45.302;-122.946;2023-05-27T05:58:54;3.17;;;1.20;;
51467;SDS011;37545;45.302;-122.946;2023-05-27T06:01:23;2.65;;;1.27;;
51467;SDS011;37545;45.302;-122.946;2023-05-27T06:03:54;2.38;;;1.20;;
51467;SDS011;37545;45.302;-122.946;2023-05-27T06:06:23;1.92;;;1.08;;
51467;SDS011;37545;45.302;-122.946;2023-05-27T06:08:52;3.03;;;1.35;;
51467;SDS011;37545;45.302;-122.946;2023-05-27T06:11:20;3.20;;;1.17;;
51467;SDS011;37545;45.302;-122.946;2023-05-27T06:13:49;2.03;;;0.98;;
51467;SDS011;37545;45.302;-122.946;2023-05-27T06:16:18;2.85;;;1.02;;
51467;SDS011;37545;45.302;-122.946;2023-05-27T06:18:46;2.08;;;0.80;;
51467;SDS011;37545;45.302;-122.946;2023-05-27T06:21:16;7.78;;;1.38;;
51467;SDS011;37545;45.302;-122.946;2023-05-27T06:23:45;1.73;;;0.98;;
51467;SDS011;37545;45.302;-122.946;2023-05-27T06:26:13;3.22;;;1.23;;
51467;SDS011;37545;45.302;-122.946;2023-05-27T06:28:42;1.70;;;0.80;;
51467;SDS011;37545;45.302;-122.946;2023-05-27T06:31:11;3.45;;;1.10;;
51467;SDS011;37545;45.302;-122.946;2023-05-27T06:33:41;2.15;;;0.80;;
51467;SDS011;37545;45.302;-122.946;2023-05-27T06:36:09;1.33;;;0.90;;
51467;SDS011;37545;45.302;-122.946;2023-05-27T06:38:40;2.10;;;1.27;;
51467;SDS011;37545;45.302;-122.946;2023-05-27T06:41:08;2.58;;;1.17;;
51467;SDS011;37545;45.302;-122.946;2023-05-27T06:43:37;3.15;;;0.85;;
51467;SDS011;37545;45.302;-122.946;2023-05-27T06:46:05;2.08;;;1.20;;
51467;SDS011;37545;45.302;-122.946;2023-05-27T06:48:34;1.30;;;0.77;;
51467;SDS011;37545;45.302;-122.946;2023-05-27T06:51:02;2.75;;;1.20;;
51467;SDS011;37545;45.302;-122.946;2023-05-27T06:53:33;1.95;;;0.98;;
51467;SDS011;37545;45.302;-122.946;2023-05-27T06:56:04;2.83;;;1.10;;
51467;SDS011;37545;45.302;-122.946;2023-05-27T06:58:33;3.33;;;1.20;;
51467;SDS011;37545;45.302;-122.946;2023-05-27T07:01:01;4.47;;;1.70;;
51467;SDS011;37545;45.302;-122.946;2023-05-27T07:03:30;3.08;;;2.00;;
51467;SDS011;37545;45.302;-122.946;2023-05-27T07:05:59;3.47;;;2.10;;
51467;SDS011;37545;45.302;-122.946;2023-05-27T07:08:27;3.13;;;2.05;;
51467;SDS011;37545;45.302;-122.946;2023-05-27T07:10:56;4.97;;;2.30;;
51467;SDS011;37545;45.302;-122.946;2023-05-27T07:13:27;3.92;;;2.00;;
51467;SDS011;37545;45.302;-122.946;2023-05-27T07:15:56;5.13;;;1.70;;
51467;SDS011;37545;45.302;-122.946;2023-05-27T07:18:24;4.78;;;1.77;;
51467;SDS011;37545;45.302;-122.946;2023-05-27T07:20:53;3.40;;;1.90;;
51467;SDS011;37545;45.302;-122.946;2023-05-27T07:23:22;3.45;;;1.73;;
51467;SDS011;37545;45.302;-122.946;2023-05-27T07:25:50;3.00;;;1.65;;
51467;SDS011;37545;45.302;-122.946;2023-05-27T07:28:19;3.10;;;1.50;;
51467;SDS011;37545;45.302;-122.946;2023-05-27T07:30:49;3.35;;;1.63;;
51467;SDS011;37545;45.302;-122.946;2023-05-27T07:33:18;4.78;;;1.48;;
51467;SDS011;37545;45.302;-122.946;2023-05-27T07:35:46;4.25;;;1.40;;
51467;SDS011;37545;45.302;-122.946;2023-05-27T07:38:17;2.22;;;0.95;;
51467;SDS011;37545;45.302;-122.946;2023-05-27T07:40:46;2.78;;;1.00;;
51467;SDS011;37545;45.302;-122.946;2023-05-27T07:43:15;2.58;;;1.05;;
51467;SDS011;37545;45.302;-122.946;2023-05-27T07:45:43;1.42;;;0.90;;
51467;SDS011;37545;45.302;-122.946;2023-05-27T07:48:13;2.40;;;0.70;;
51467;SDS011;37545;45.302;-122.946;2023-05-27T07:50:42;1.20;;;0.60;;
51467;SDS011;37545;45.302;-122.946;2023-05-27T07:53:11;1.85;;;0.68;;
51467;SDS011;37545;45.302;-122.946;2023-05-27T07:55:39;1.27;;;0.80;;
51467;SDS011;37545;45.302;-122.946;2023-05-27T07:58:08;2.53;;;0.93;;
51467;SDS011;37545;45.302;-122.946;2023-05-27T08:00:36;1.00;;;0.90;;
51467;SDS011;37545;45.302;-122.946;2023-05-27T08:03:09;1.25;;;0.70;;
51467;SDS011;37545;45.302;-122.946;2023-05-27T08:05:39;1.17;;;0.75;;
51467;SDS011;37545;45.302;-122.946;2023-05-27T08:08:08;0.68;;;0.60;;
51467;SDS011;37545;45.302;-122.946;2023-05-27T08:10:36;1.88;;;0.68;;
51467;SDS011;37545;45.302;-122.946;2023-05-27T08:13:07;1.33;;;0.65;;
51467;SDS011;37545;45.302;-122.946;2023-05-27T08:15:36;0.47;;;0.45;;
51467;SDS011;37545;45.302;-122.946;2023-05-27T08:18:04;2.28;;;0.60;;
51467;SDS011;37545;45.302;-122.946;2023-05-27T08:20:33;1.35;;;0.70;;
51467;SDS011;37545;45.302;-122.946;2023-05-27T08:23:03;3.40;;;1.48;;
51467;SDS011;37545;45.302;-122.946;2023-05-27T08:25:32;2.50;;;1.42;;
51467;SDS011;37545;45.302;-122.946;2023-05-27T08:28:00;3.58;;;1.50;;
51467;SDS011;37545;45.302;-122.946;2023-05-27T08:30:29;3.95;;;1.90;;
51467;SDS011;37545;45.302;-122.946;2023-05-27T08:32:58;5.53;;;2.05;;
51467;SDS011;37545;45.302;-122.946;2023-05-27T08:35:26;3.38;;;2.33;;
51467;SDS011;37545;45.302;-122.946;2023-05-27T08:37:58;3.25;;;1.42;;
51467;SDS011;37545;45.302;-122.946;2023-05-27T08:40:28;1.65;;;1.25;;
51467;SDS011;37545;45.302;-122.946;2023-05-27T08:42:56;2.50;;;1.40;;
51467;SDS011;37545;45.302;-122.946;2023-05-27T08:45:25;3.72;;;1.63;;
51467;SDS011;37545;45.302;-122.946;2023-05-27T08:47:56;5.45;;;2.03;;
51467;SDS011;37545;45.302;-122.946;2023-05-27T08:50:25;2.85;;;1.40;;
51467;SDS011;37545;45.302;-122.946;2023-05-27T08:52:54;2.83;;;1.77;;
51467;SDS011;37545;45.302;-122.946;2023-05-27T08:55:22;2.70;;;1.73;;
51467;SDS011;37545;45.302;-122.946;2023-05-27T08:57:54;2.88;;;1.63;;
51467;SDS011;37545;45.302;-122.946;2023-05-27T09:00:24;4.80;;;1.85;;
51467;SDS011;37545;45.302;-122.946;2023-05-27T09:02:53;1.88;;;1.27;;
51467;SDS011;37545;45.302;-122.946;2023-05-27T09:05:25;5.82;;;1.65;;
51467;SDS011;37545;45.302;-122.946;2023-05-27T09:07:54;4.45;;;1.40;;
51467;SDS011;37545;45.302;-122.946;2023-05-27T09:10:34;3.80;;;1.45;;
51467;SDS011;37545;45.302;-122.946;2023-05-27T09:13:07;4.53;;;1.25;;
51467;SDS011;37545;45.302;-122.946;2023-05-27T09:15:36;2.20;;;1.40;;
51467;SDS011;37545;45.302;-122.946;2023-05-27T09:18:05;1.92;;;1.20;;
51467;SDS011;37545;45.302;-122.946;2023-05-27T09:20:34;5.13;;;1.65;;
51467;SDS011;37545;45.302;-122.946;2023-05-27T09:23:03;2.45;;;1.48;;
51467;SDS011;37545;45.302;-122.946;2023-05-27T09:25:34;1.80;;;1.25;;
51467;SDS011;37545;45.302;-122.946;2023-05-27T09:28:04;2.67;;;1.45;;
51467;SDS011;37545;45.302;-122.946;2023-05-27T09:30:35;4.07;;;1.30;;
51467;SDS011;37545;45.302;-122.946;2023-05-27T09:33:04;2.45;;;1.75;;
51467;SDS011;37545;45.302;-122.946;2023-05-27T09:35:37;3.00;;;1.67;;
51467;SDS011;37545;45.302;-122.946;2023-05-27T09:40:43;2.88;;;1.52;;
51467;SDS011;37545;45.302;-122.946;2023-05-27T09:43:14;2.15;;;1.50;;
51467;SDS011;37545;45.302;-122.946;2023-05-27T09:45:44;2.30;;;1.60;;
51467;SDS011;37545;45.302;-122.946;2023-05-27T09:48:18;1.85;;;1.15;;
51467;SDS011;37545;45.302;-122.946;2023-05-27T09:50:47;3.35;;;1.35;;
51467;SDS011;37545;45.302;-122.946;2023-05-27T09:53:18;4.60;;;1.52;;
51467;SDS011;37545;45.302;-122.946;2023-05-27T09:55:53;2.40;;;1.30;;
51467;SDS011;37545;45.302;-122.946;2023-05-27T09:58:24;2.28;;;1.58;;
51467;SDS011;37545;45.302;-122.946;2023-05-27T10:00:53;4.32;;;1.67;;
51467;SDS011;37545;45.302;-122.946;2023-05-27T10:03:27;5.23;;;1.37;;
51467;SDS011;37545;45.302;-122.946;2023-05-27T10:05:58;1.98;;;1.52;;
51467;SDS011;37545;45.302;-122.946;2023-05-27T10:08:28;2.95;;;1.30;;
51467;SDS011;37545;45.302;-122.946;2023-05-27T10:10:57;3.13;;;1.48;;
51467;SDS011;37545;45.302;-122.946;2023-05-27T10:13:27;5.18;;;1.48;;
51467;SDS011;37545;45.302;-122.946;2023-05-27T10:15:58;5.30;;;1.50;;
51467;SDS011;37545;45.302;-122.946;2023-05-27T10:18:26;3.63;;;1.52;;
51467;SDS011;37545;45.302;-122.946;2023-05-27T10:20:56;1.63;;;1.20;;
51467;SDS011;37545;45.302;-122.946;2023-05-27T10:23:26;3.10;;;1.48;;
51467;SDS011;37545;45.302;-122.946;2023-05-27T10:26:00;3.17;;;1.77;;
51467;SDS011;37545;45.302;-122.946;2023-05-27T10:28:31;3.20;;;1.60;;
51467;SDS011;37545;45.302;-122.946;2023-05-27T10:31:04;6.68;;;1.63;;
51467;SDS011;37545;45.302;-122.946;2023-05-27T10:33:36;6.07;;;1.77;;
51467;SDS011;37545;45.302;-122.946;2023-05-27T10:36:09;2.05;;;1.40;;
51467;SDS011;37545;45.302;-122.946;2023-05-27T10:38:38;3.35;;;1.65;;
51467;SDS011;37545;45.302;-122.946;2023-05-27T10:41:08;2.65;;;2.20;;
51467;SDS011;37545;45.302;-122.946;2023-05-27T10:43:41;2.40;;;1.40;;
51467;SDS011;37545;45.302;-122.946;2023-05-27T10:46:11;2.33;;;1.48;;
51467;SDS011;37545;45.302;-122.946;2023-05-27T10:48:40;3.33;;;1.48;;
51467;SDS011;37545;45.302;-122.946;2023-05-27T10:51:09;4.90;;;1.60;;
51467;SDS011;37545;45.302;-122.946;2023-05-27T10:53:37;2.40;;;1.55;;
51467;SDS011;37545;45.302;-122.946;2023-05-27T10:56:06;2.38;;;1.10;;
51467;SDS011;37545;45.302;-122.946;2023-05-27T10:58:36;1.85;;;1.27;;
51467;SDS011;37545;45.302;-122.946;2023-05-27T11:01:09;2.40;;;1.45;;
51467;SDS011;37545;45.302;-122.946;2023-05-27T11:03:41;4.05;;;1.65;;
51467;SDS011;37545;45.302;-122.946;2023-05-27T11:06:12;2.05;;;1.38;;
51467;SDS011;37545;45.302;-122.946;2023-05-27T11:08:42;2.10;;;1.40;;
51467;SDS011;37545;45.302;-122.946;2023-05-27T11:11:11;3.15;;;1.55;;
51467;SDS011;37545;45.302;-122.946;2023-05-27T11:13:43;2.78;;;1.27;;
51467;SDS011;37545;45.302;-122.946;2023-05-27T11:16:14;6.85;;;1.60;;
51467;SDS011;37545;45.302;-122.946;2023-05-27T11:18:44;2.28;;;1.67;;
51467;SDS011;37545;45.302;-122.946;2023-05-27T11:21:13;2.28;;;1.38;;
51467;SDS011;37545;45.302;-122.946;2023-05-27T11:23:44;1.85;;;1.17;;
51467;SDS011;37545;45.302;-122.946;2023-05-27T11:26:15;3.42;;;1.20;;
51467;SDS011;37545;45.302;-122.946;2023-05-27T11:28:47;3.05;;;1.60;;
51467;SDS011;37545;45.302;-122.946;2023-05-27T11:31:19;2.33;;;1.70;;
51467;SDS011;37545;45.302;-122.946;2023-05-27T11:33:51;2.78;;;1.27;;
51467;SDS011;37545;45.302;-122.946;2023-05-27T11:36:24;1.92;;;1.17;;
51467;SDS011;37545;45.302;-122.946;2023-05-27T11:41:24;4.97;;;1.45;;
51467;SDS011;37545;45.302;-122.946;2023-05-27T11:43:55;1.70;;;1.20;;
51467;SDS011;37545;45.302;-122.946;2023-05-27T11:46:33;3.75;;;1.00;;
51467;SDS011;37545;45.302;-122.946;2023-05-27T11:49:02;5.88;;;1.45;;
51467;SDS011;37545;45.302;-122.946;2023-05-27T11:51:37;2.13;;;1.10;;
51467;SDS011;37545;45.302;-122.946;2023-05-27T11:54:06;5.50;;;1.85;;
51467;SDS011;37545;45.302;-122.946;2023-05-27T11:56:35;4.72;;;1.30;;
51467;SDS011;37545;45.302;-122.946;2023-05-27T11:59:03;4.22;;;1.20;;
51467;SDS011;37545;45.302;-122.946;2023-05-27T12:01:36;3.28;;;1.48;;
51467;SDS011;37545;45.302;-122.946;2023-05-27T12:06:40;3.15;;;1.23;;
51467;SDS011;37545;45.302;-122.946;2023-05-27T12:09:09;3.42;;;1.27;;
51467;SDS011;37545;45.302;-122.946;2023-05-27T12:11:41;1.58;;;1.10;;
51467;SDS011;37545;45.302;-122.946;2023-05-27T12:14:09;2.33;;;1.38;;
51467;SDS011;37545;45.302;-122.946;2023-05-27T12:16:40;2.70;;;1.45;;
51467;SDS011;37545;45.302;-122.946;2023-05-27T12:19:09;5.13;;;1.42;;
51467;SDS011;37545;45.302;-122.946;2023-05-27T12:21:37;3.25;;;1.13;;
51467;SDS011;37545;45.302;-122.946;2023-05-27T12:24:09;3.17;;;1.40;;
51467;SDS011;37545;45.302;-122.946;2023-05-27T12:26:38;1.85;;;1.20;;
51467;SDS011;37545;45.302;-122.946;2023-05-27T12:29:07;2.05;;;1.30;;
51467;SDS011;37545;45.302;-122.946;2023-05-27T12:31:36;3.28;;;1.48;;
51467;SDS011;37545;45.302;-122.946;2023-05-27T12:34:06;2.55;;;1.10;;
51467;SDS011;37545;45.302;-122.946;2023-05-27T12:36:34;2.55;;;1.27;;
51467;SDS011;37545;45.302;-122.946;2023-05-27T12:39:03;2.10;;;1.20;;
51467;SDS011;37545;45.302;-122.946;2023-05-27T12:41:32;4.25;;;1.20;;
51467;SDS011;37545;45.302;-122.946;2023-05-27T12:44:00;2.38;;;1.02;;
51467;SDS011;37545;45.302;-122.946;2023-05-27T12:46:29;2.38;;;1.20;;
51467;SDS011;37545;45.302;-122.946;2023-05-27T12:48:57;2.08;;;1.27;;
51467;SDS011;37545;45.302;-122.946;2023-05-27T12:51:28;11.57;;;1.50;;
51467;SDS011;37545;45.302;-122.946;2023-05-27T12:53:58;1.70;;;1.10;;
51467;SDS011;37545;45.302;-122.946;2023-05-27T12:56:26;2.53;;;1.40;;
51467;SDS011;37545;45.302;-122.946;2023-05-27T12:58:55;2.72;;;1.35;;
51467;SDS011;37545;45.302;-122.946;2023-05-27T13:01:26;1.75;;;1.05;;
51467;SDS011;37545;45.302;-122.946;2023-05-27T13:03:56;1.27;;;1.00;;
51467;SDS011;37545;45.302;-122.946;2023-05-27T13:06:24;2.53;;;1.23;;
51467;SDS011;37545;45.302;-122.946;2023-05-27T13:08:55;2.67;;;1.50;;
51467;SDS011;37545;45.302;-122.946;2023-05-27T13:11:23;1.95;;;1.33;;
51467;SDS011;37545;45.302;-122.946;2023-05-27T13:13:52;3.65;;;1.42;;
51467;SDS011;37545;45.302;-122.946;2023-05-27T13:16:20;1.80;;;1.27;;
51467;SDS011;37545;45.302;-122.946;2023-05-27T13:18:49;2.78;;;1.15;;
51467;SDS011;37545;45.302;-122.946;2023-05-27T13:21:21;1.98;;;1.27;;
51467;SDS011;37545;45.302;-122.946;2023-05-27T13:23:49;1.45;;;0.88;;
51467;SDS011;37545;45.302;-122.946;2023-05-27T13:26:19;1.75;;;1.30;;
51467;SDS011;37545;45.302;-122.946;2023-05-27T13:28:56;3.22;;;1.38;;
51467;SDS011;37545;45.302;-122.946;2023-05-27T13:31:27;2.65;;;1.52;;
51467;SDS011;37545;45.302;-122.946;2023-05-27T13:33:55;2.67;;;1.25;;
51467;SDS011;37545;45.302;-122.946;2023-05-27T13:36:26;1.35;;;1.05;;
51467;SDS011;37545;45.302;-122.946;2023-05-27T13:38:54;6.70;;;1.15;;
51467;SDS011;37545;45.302;-122.946;2023-05-27T13:41:24;3.40;;;1.48;;
51467;SDS011;37545;45.302;-122.946;2023-05-27T13:43:53;3.88;;;1.40;;
51467;SDS011;37545;45.302;-122.946;2023-05-27T13:46:21;1.70;;;1.20;;
51467;SDS011;37545;45.302;-122.946;2023-05-27T13:48:50;3.55;;;1.23;;
51467;SDS011;37545;45.302;-122.946;2023-05-27T13:51:21;4.07;;;1.38;;
51467;SDS011;37545;45.302;-122.946;2023-05-27T13:53:53;1.85;;;1.17;;
51467;SDS011;37545;45.302;-122.946;2023-05-27T13:56:21;4.40;;;1.42;;
51467;SDS011;37545;45.302;-122.946;2023-05-27T13:58:52;3.00;;;1.20;;
51467;SDS011;37545;45.302;-122.946;2023-05-27T14:01:20;2.25;;;1.10;;
51467;SDS011;37545;45.302;-122.946;2023-05-27T14:03:49;2.05;;;1.20;;
51467;SDS011;37545;45.302;-122.946;2023-05-27T14:06:18;3.13;;;1.10;;
51467;SDS011;37545;45.302;-122.946;2023-05-27T14:08:46;2.63;;;1.10;;
51467;SDS011;37545;45.302;-122.946;2023-05-27T14:11:15;2.70;;;1.45;;
51467;SDS011;37545;45.302;-122.946;2023-05-27T14:13:43;3.88;;;1.30;;
51467;SDS011;37545;45.302;-122.946;2023-05-27T14:16:15;2.25;;;1.33;;
51467;SDS011;37545;45.302;-122.946;2023-05-27T14:18:44;2.10;;;1.33;;
51467;SDS011;37545;45.302;-122.946;2023-05-27T14:21:13;2.83;;;1.45;;
51467;SDS011;37545;45.302;-122.946;2023-05-27T14:23:42;2.20;;;1.42;;
51467;SDS011;37545;45.302;-122.946;2023-05-27T14:26:21;4.10;;;1.50;;
51467;SDS011;37545;45.302;-122.946;2023-05-27T14:28:49;1.95;;;1.10;;
51467;SDS011;37545;45.302;-122.946;2023-05-27T14:31:19;2.50;;;1.10;;